Time;durP1;ratioP1;P1;durP2;ratioP2;P2;SDS_P1;SDS_P2;PMS_P1;PMS_P2;Temp;Humidity;BMP_temperature;BMP_pressure;BME280_temperature;BME280_humidity;BME280_pressure;Samples;Min_cycle;Max_cycle;Signal;HPM_P1;HPM_P2
2023/07/02 00:00:11;;;;;;;23.58;15.95;;;19.70;81.20;;;;;;5076365;28;20071;-90
2023/07/02 00:02:38;;;;;;;19.88;14.00;;;19.70;81.30;;;;;;5076483;28;20045;-90
2023/07/02 00:05:07;;;;;;;20.13;14.65;;;19.60;81.20;;;;;;5076312;28;20380;-90
2023/07/02 00:07:36;;;;;;;20.63;14.55;;;19.60;81.20;;;;;;5059745;28;20091;-90
2023/07/02 00:10:04;;;;;;;21.17;14.50;;;19.50;81.40;;;;;;5075812;28;20056;-90
2023/07/02 00:12:31;;;;;;;22.70;14.65;;;19.50;81.40;;;;;;5076224;28;20564;-91
2023/07/02 00:14:58;;;;;;;19.60;14.02;;;19.50;81.50;;;;;;5059404;28;20139;-91
2023/07/02 00:17:25;;;;;;;18.75;14.30;;;19.40;81.80;;;;;;5076224;28;20036;-91
2023/07/02 00:19:53;;;;;;;20.15;14.07;;;19.30;82.10;;;;;;5059320;28;20041;-91
2023/07/02 00:22:20;;;;;;;21.17;14.03;;;19.30;82.10;;;;;;5059518;28;20047;-91
2023/07/02 00:24:48;;;;;;;21.38;13.57;;;19.30;81.90;;;;;;5059880;28;20049;-91
2023/07/02 00:27:15;;;;;;;21.15;15.05;;;19.30;82.10;;;;;;5075858;28;20055;-91
2023/07/02 00:29:42;;;;;;;23.38;15.45;;;19.30;82.00;;;;;;5059131;28;20037;-91
2023/07/02 00:32:09;;;;;;;22.25;14.50;;;19.20;82.30;;;;;;5059270;28;20040;-91
2023/07/02 00:34:36;;;;;;;24.43;16.10;;;19.10;82.40;;;;;;5059216;28;20044;-91
2023/07/02 00:37:03;;;;;;;22.40;15.52;;;19.10;82.60;;;;;;5059341;28;20049;-92
2023/07/02 00:39:30;;;;;;;21.48;15.63;;;19.10;82.70;;;;;;5058992;28;20044;-91
2023/07/02 00:42:04;;;;;;;25.73;14.60;;;19.10;82.80;;;;;;5059066;28;20044;-92
2023/07/02 00:44:31;;;;;;;23.65;14.43;;;19.00;83.00;;;;;;5075577;28;20056;-91
2023/07/02 00:46:59;;;;;;;24.17;15.40;;;19.00;83.10;;;;;;5059013;28;20455;-91
2023/07/02 00:49:27;;;;;;;21.75;13.77;;;19.00;83.10;;;;;;5058934;28;20402;-91
2023/07/02 00:51:54;;;;;;;21.13;14.75;;;18.80;83.30;;;;;;5058884;28;20076;-91
2023/07/02 00:54:21;;;;;;;21.05;13.85;;;18.80;83.50;;;;;;5075183;28;20040;-91
2023/07/02 00:56:50;;;;;;;20.10;13.60;;;18.70;83.50;;;;;;5058668;28;20498;-91
2023/07/02 00:59:17;;;;;;;19.87;14.70;;;18.60;83.70;;;;;;5058750;28;20044;-91
2023/07/02 01:01:49;;;;;;;22.05;13.98;;;18.60;83.80;;;;;;5058499;28;20079;-91
2023/07/02 01:04:19;;;;;;;21.00;14.93;;;18.70;83.70;;;;;;5075072;28;20525;-91
2023/07/02 01:06:46;;;;;;;21.00;14.50;;;18.60;83.60;;;;;;5058512;28;20123;-91
2023/07/02 01:09:13;;;;;;;21.20;14.75;;;18.60;83.50;;;;;;5058282;28;20098;-91
2023/07/02 01:11:53;;;;;;;21.30;13.97;;;18.60;83.70;;;;;;5058615;28;20532;-91
2023/07/02 01:14:33;;;;;;;21.10;13.77;;;18.60;83.60;;;;;;5058872;28;20509;-91
2023/07/02 01:17:06;;;;;;;21.13;14.18;;;18.50;83.60;;;;;;5074988;28;20051;-91
2023/07/02 01:19:44;;;;;;;20.80;13.32;;;18.60;83.60;;;;;;5075076;28;20049;-91
2023/07/02 01:22:12;;;;;;;20.63;13.85;;;18.60;83.60;;;;;;5074947;28;20514;-91
2023/07/02 01:24:40;;;;;;;20.77;13.50;;;18.50;83.70;;;;;;5058243;28;20054;-91
2023/07/02 01:27:10;;;;;;;18.63;12.20;;;18.50;83.70;;;;;;5058260;28;20080;-91
2023/07/02 01:29:37;;;;;;;17.92;13.00;;;18.50;83.70;;;;;;5074565;28;20040;-92
2023/07/02 01:32:05;;;;;;;18.60;13.05;;;18.50;83.70;;;;;;5058275;28;20040;-91
2023/07/02 01:34:32;;;;;;;16.83;11.30;;;18.50;84.00;;;;;;5074654;28;20075;-92
2023/07/02 01:37:00;;;;;;;17.50;11.63;;;18.40;83.90;;;;;;5058087;28;20498;-91
2023/07/02 01:39:27;;;;;;;17.02;11.75;;;18.40;83.90;;;;;;5057773;28;20383;-91
2023/07/02 01:41:56;;;;;;;20.85;12.18;;;18.40;83.80;;;;;;5058003;28;20117;-91
2023/07/02 01:44:23;;;;;;;17.98;11.85;;;18.30;83.80;;;;;;5074481;28;20143;-90
2023/07/02 01:46:50;;;;;;;17.55;11.23;;;18.30;84.00;;;;;;5074269;28;20045;-91
2023/07/02 01:49:18;;;;;;;16.33;11.57;;;18.30;84.00;;;;;;5057694;28;20080;-91
2023/07/02 01:51:55;;;;;;;17.17;11.23;;;18.20;84.10;;;;;;5057560;28;20033;-91
2023/07/02 01:54:26;;;;;;;20.50;12.15;;;18.10;84.40;;;;;;5074235;28;20040;-90
2023/07/02 01:56:55;;;;;;;20.27;13.20;;;18.10;84.60;;;;;;5057438;28;20044;-91
2023/07/02 01:59:22;;;;;;;20.38;13.05;;;18.20;84.70;;;;;;5057500;28;20094;-91
2023/07/02 02:01:49;;;;;;;18.43;13.17;;;18.20;84.70;;;;;;5074181;28;20053;-90
2023/07/02 02:04:17;;;;;;;20.50;13.38;;;18.20;84.60;;;;;;5058118;28;20048;-91
2023/07/02 02:06:44;;;;;;;19.85;13.57;;;18.10;84.60;;;;;;5073985;28;20055;-91
2023/07/02 02:09:11;;;;;;;20.83;13.35;;;18.10;84.70;;;;;;5073952;28;20063;-91
2023/07/02 02:11:41;;;;;;;19.58;13.55;;;18.20;84.60;;;;;;5057710;28;20123;-91
2023/07/02 02:14:09;;;;;;;18.70;13.60;;;18.00;84.60;;;;;;5073033;28;20041;-91
2023/07/02 02:16:36;;;;;;;18.85;12.65;;;18.00;84.80;;;;;;5057686;28;20066;-91
2023/07/02 02:19:04;;;;;;;19.05;12.80;;;17.90;84.80;;;;;;5057154;28;20041;-91
2023/07/02 02:21:32;;;;;;;18.75;12.75;;;17.90;84.80;;;;;;5057248;28;20052;-91
2023/07/02 02:23:59;;;;;;;17.33;11.75;;;17.90;84.80;;;;;;5073743;28;20052;-91
2023/07/02 02:26:26;;;;;;;17.53;12.73;;;17.90;84.70;;;;;;5057074;28;20461;-91
2023/07/02 02:28:54;;;;;;;17.70;12.63;;;18.00;84.60;;;;;;5073625;28;20055;-91
2023/07/02 02:31:21;;;;;;;19.92;13.95;;;17.90;84.50;;;;;;5057144;28;20050;-91
2023/07/02 02:33:48;;;;;;;17.42;12.30;;;17.80;84.70;;;;;;5074022;28;20135;-91
2023/07/02 02:36:17;;;;;;;19.58;13.45;;;17.80;84.80;;;;;;5057143;28;20036;-91
2023/07/02 02:38:44;;;;;;;18.30;12.63;;;17.80;84.90;;;;;;5057240;28;20055;-92
2023/07/02 02:41:12;;;;;;;18.02;12.30;;;17.80;85.00;;;;;;5057316;28;20131;-92
2023/07/02 02:43:45;;;;;;;18.05;12.00;;;17.70;85.00;;;;;;5073610;28;20044;-91
2023/07/02 02:46:20;;;;;;;17.17;11.65;;;17.70;85.00;;;;;;5073853;28;20075;-92
2023/07/02 02:48:48;;;;;;;16.85;11.40;;;17.70;85.00;;;;;;5057328;28;20068;-91
2023/07/02 02:51:15;;;;;;;15.13;10.90;;;17.70;84.80;;;;;;5056951;28;20043;-91
2023/07/02 02:53:42;;;;;;;15.57;10.88;;;17.80;84.80;;;;;;5073699;28;20045;-91
2023/07/02 02:56:10;;;;;;;17.05;11.80;;;17.70;84.80;;;;;;5056890;28;20071;-91
2023/07/02 02:58:37;;;;;;;18.08;12.15;;;17.70;84.90;;;;;;5073641;28;20047;-91
2023/07/02 03:01:10;;;;;;;16.75;11.52;;;17.70;85.00;;;;;;5056754;28;20113;-91
2023/07/02 03:03:45;;;;;;;18.23;12.50;;;17.70;85.20;;;;;;5073501;28;20045;-91
2023/07/02 03:06:14;;;;;;;18.13;12.98;;;17.70;85.30;;;;;;5073361;28;20176;-91
2023/07/02 03:08:42;;;;;;;17.73;12.80;;;17.70;85.40;;;;;;5056842;28;20053;-91
2023/07/02 03:11:09;;;;;;;18.33;12.88;;;17.70;85.40;;;;;;5056580;28;20061;-91
2023/07/02 03:13:36;;;;;;;20.05;13.55;;;17.80;85.30;;;;;;5056913;28;20041;-91
2023/07/02 03:16:04;;;;;;;17.33;12.40;;;17.80;85.00;;;;;;5073820;28;20135;-91
2023/07/02 03:18:31;;;;;;;18.35;13.27;;;17.80;84.90;;;;;;5073543;28;20044;-91
2023/07/02 03:20:59;;;;;;;19.33;13.07;;;17.90;84.80;;;;;;5073582;28;20487;-91
2023/07/02 03:23:27;;;;;;;17.40;12.50;;;18.00;84.70;;;;;;5056690;28;20079;-91
2023/07/02 03:25:54;;;;;;;18.20;12.85;;;18.00;84.60;;;;;;5074693;28;20413;-91
2023/07/02 03:28:21;;;;;;;14.93;11.10;;;18.00;84.40;;;;;;5060420;28;20052;-92
2023/07/02 03:30:48;;;;;;;16.75;12.05;;;18.00;84.30;;;;;;5077021;28;20052;-92
2023/07/02 03:33:16;;;;;;;16.77;11.32;;;17.90;84.60;;;;;;5060799;28;20191;-91
2023/07/02 03:35:43;;;;;;;18.95;11.85;;;18.00;84.50;;;;;;5076768;28;20041;-91
2023/07/02 03:38:10;;;;;;;16.25;11.57;;;18.00;84.30;;;;;;5060515;28;20525;-92
2023/07/02 03:40:37;;;;;;;22.50;12.70;;;18.10;84.10;;;;;;5061101;28;20045;-92
2023/07/02 03:43:05;;;;;;;17.23;11.60;;;18.20;83.70;;;;;;5060910;28;20044;-91
2023/07/02 03:45:32;;;;;;;18.83;11.95;;;18.20;83.60;;;;;;5060343;28;20406;-91
2023/07/02 03:48:00;;;;;;;21.10;12.35;;;18.30;83.40;;;;;;5060927;28;20151;-91
2023/07/02 03:50:27;;;;;;;22.20;12.75;;;18.30;83.50;;;;;;5076814;28;20437;-91
2023/07/02 03:52:54;;;;;;;22.63;12.77;;;18.30;83.30;;;;;;5060129;28;20044;-91
2023/07/02 03:55:21;;;;;;;23.50;12.52;;;18.40;83.10;;;;;;5077090;28;20037;-91
2023/07/02 03:57:48;;;;;;;24.42;12.25;;;18.40;82.90;;;;;;5060827;28;20045;-91
2023/07/02 04:00:16;;;;;;;16.25;11.20;;;18.50;82.80;;;;;;5077804;28;20139;-91
2023/07/02 04:02:42;;;;;;;15.57;10.57;;;18.50;82.50;;;;;;5077498;28;20056;-91
2023/07/02 04:05:10;;;;;;;19.20;10.70;;;18.50;82.40;;;;;;5077141;28;20098;-91
2023/07/02 04:07:38;;;;;;;17.02;10.63;;;18.50;82.60;;;;;;5060337;28;20115;-91
2023/07/02 04:10:05;;;;;;;16.27;11.30;;;18.50;82.60;;;;;;5077393;28;20146;-91
2023/07/02 04:12:32;;;;;;;17.67;11.10;;;18.40;82.90;;;;;;5076519;28;20044;-91
2023/07/02 04:14:59;;;;;;;22.95;13.07;;;18.40;83.00;;;;;;5060650;28;20079;-91
2023/07/02 04:17:27;;;;;;;19.70;12.10;;;18.40;83.20;;;;;;5059876;28;20044;-90
2023/07/02 04:19:54;;;;;;;17.55;11.85;;;18.40;83.00;;;;;;5059754;28;20052;-91
2023/07/02 04:22:22;;;;;;;15.45;10.00;;;18.50;82.70;;;;;;5076409;28;20040;-91
2023/07/02 04:24:49;;;;;;;15.73;10.20;;;18.50;82.60;;;;;;5059788;28;20091;-91
2023/07/02 04:27:18;;;;;;;14.32;9.32;;;18.50;82.50;;;;;;5075682;28;20114;-91
2023/07/02 04:30:05;;;;;;;15.73;9.50;;;18.50;82.30;;;;;;5075907;28;20049;-91
2023/07/02 04:32:33;;;;;;;15.18;10.13;;;18.60;82.30;;;;;;5075713;28;20448;-91
2023/07/02 04:35:01;;;;;;;13.68;9.23;;;18.60;82.20;;;;;;5075816;28;20052;-91
2023/07/02 04:37:30;;;;;;;15.55;9.13;;;18.70;82.10;;;;;;5058727;28;20502;-91
2023/07/02 04:39:57;;;;;;;14.63;9.18;;;18.80;81.90;;;;;;5059159;28;20136;-91
2023/07/02 04:42:27;;;;;;;13.23;8.60;;;19.00;82.00;;;;;;5075593;28;20525;-91
2023/07/02 04:44:54;;;;;;;12.85;8.48;;;19.10;81.60;;;;;;5075807;28;20518;-91
2023/07/02 04:47:25;;;;;;;15.93;9.32;;;19.30;80.60;;;;;;5075515;28;20044;-91
2023/07/02 04:49:52;;;;;;;14.38;10.10;;;19.40;80.50;;;;;;5058819;28;20052;-92
2023/07/02 04:52:19;;;;;;;22.75;12.50;;;19.50;80.10;;;;;;5059380;28;20040;-91
2023/07/02 04:54:46;;;;;;;22.07;12.93;;;19.60;79.00;;;;;;5075884;28;20067;-91
2023/07/02 04:57:14;;;;;;;15.45;10.00;;;19.80;78.60;;;;;;5058902;28;20179;-92
2023/07/02 04:59:42;;;;;;;14.07;8.25;;;20.00;78.00;;;;;;5075546;28;20048;-91
2023/07/02 05:02:10;;;;;;;12.57;8.90;;;20.20;78.00;;;;;;5058905;28;20110;-92
2023/07/02 05:04:37;;;;;;;14.60;9.57;;;20.30;78.30;;;;;;5059053;28;20048;-92
2023/07/02 05:07:04;;;;;;;14.43;8.87;;;20.40;77.20;;;;;;5075312;28;20064;-92
2023/07/02 05:09:31;;;;;;;14.68;9.02;;;20.50;76.80;;;;;;5075041;28;20080;-92
2023/07/02 05:11:59;;;;;;;13.68;8.35;;;20.60;76.00;;;;;;5075111;28;20040;-92
2023/07/02 05:14:26;;;;;;;12.55;7.82;;;20.80;76.10;;;;;;5074835;28;20045;-92
2023/07/02 05:16:53;;;;;;;12.20;7.90;;;20.80;75.30;;;;;;5058561;28;20044;-91
2023/07/02 05:19:20;;;;;;;13.43;8.57;;;21.00;74.70;;;;;;5075184;28;20051;-92
2023/07/02 05:21:47;;;;;;;24.73;13.80;;;21.10;74.20;;;;;;5058628;28;20058;-92
2023/07/02 05:24:14;;;;;;;23.75;12.07;;;21.20;73.80;;;;;;5058644;28;20118;-91
2023/07/02 05:26:41;;;;;;;26.15;13.43;;;21.10;74.00;;;;;;5058908;28;20040;-92
2023/07/02 05:29:08;;;;;;;72.68;31.48;;;21.20;74.50;;;;;;5074876;28;20055;-92
2023/07/02 05:31:35;;;;;;;59.67;26.60;;;21.20;74.00;;;;;;5058048;28;20045;-90
2023/07/02 05:34:03;;;;;;;23.17;12.18;;;21.30;74.10;;;;;;5074607;28;20045;-92
2023/07/02 05:36:30;;;;;;;17.75;9.43;;;21.30;74.00;;;;;;5074601;28;20066;-92
2023/07/02 05:38:57;;;;;;;15.23;9.07;;;21.30;73.70;;;;;;5074790;28;20094;-92
2023/07/02 05:41:24;;;;;;;17.42;9.88;;;21.30;74.10;;;;;;5074834;28;20064;-92
2023/07/02 05:43:52;;;;;;;18.63;9.17;;;21.30;75.00;;;;;;5074660;28;20135;-92
2023/07/02 05:46:20;;;;;;;14.90;7.70;;;21.30;74.10;;;;;;5057501;28;20047;-89
2023/07/02 05:48:47;;;;;;;15.93;6.53;;;21.30;72.40;;;;;;5075791;28;20115;-92
2023/07/02 05:51:19;;;;;;;10.57;5.88;;;21.30;70.30;;;;;;5058591;28;20072;-91
2023/07/02 05:53:46;;;;;;;12.88;5.68;;;21.30;68.90;;;;;;5074731;28;20049;-91
2023/07/02 05:56:13;;;;;;;12.20;5.07;;;21.30;68.80;;;;;;5057901;28;20135;-92
2023/07/02 05:58:41;;;;;;;9.25;4.20;;;21.40;66.70;;;;;;5074759;28;20087;-91
2023/07/02 06:01:14;;;;;;;7.30;3.97;;;21.50;65.50;;;;;;5074397;28;20048;-91
2023/07/02 06:03:45;;;;;;;6.78;3.67;;;21.60;63.80;;;;;;5057582;28;20545;-91
2023/07/02 06:06:12;;;;;;;6.65;3.42;;;21.80;64.70;;;;;;5074238;28;20053;-91
2023/07/02 06:08:39;;;;;;;13.80;3.40;;;22.00;62.10;;;;;;5057486;28;20044;-91
2023/07/02 06:11:07;;;;;;;8.85;3.88;;;22.10;61.70;;;;;;5057805;28;20094;-91
2023/07/02 06:13:34;;;;;;;7.30;3.30;;;22.30;63.20;;;;;;5057485;28;20136;-93
2023/07/02 06:16:02;;;;;;;6.68;3.58;;;22.60;61.60;;;;;;5057824;28;20049;-93
2023/07/02 06:18:32;;;;;;;9.40;3.65;;;22.60;60.80;;;;;;5058273;28;20040;-91
2023/07/02 06:20:59;;;;;;;9.80;3.53;;;22.60;59.90;;;;;;5057730;28;20147;-92
2023/07/02 06:23:26;;;;;;;11.77;3.38;;;22.40;58.80;;;;;;5058278;28;20040;-92
2023/07/02 06:25:58;;;;;;;6.45;3.15;;;22.40;59.50;;;;;;5057533;28;20094;-92
2023/07/02 06:28:26;;;;;;;6.93;3.28;;;22.40;60.20;;;;;;5073703;28;20045;-91
2023/07/02 06:30:56;;;;;;;7.32;3.60;;;22.30;59.50;;;;;;5057229;28;20139;-92
2023/07/02 06:33:23;;;;;;;9.70;4.00;;;22.30;60.70;;;;;;5073589;28;20139;-91
2023/07/02 06:35:50;;;;;;;7.70;3.50;;;22.30;59.70;;;;;;5057433;28;20558;-92
2023/07/02 06:38:18;;;;;;;6.45;3.58;;;22.30;60.40;;;;;;5074363;28;20070;-91
2023/07/02 06:40:45;;;;;;;7.07;3.42;;;22.30;59.20;;;;;;5056853;28;20075;-91
2023/07/02 06:43:12;;;;;;;8.10;3.78;;;22.30;59.70;;;;;;5057600;28;20052;-91
2023/07/02 06:45:39;;;;;;;6.87;3.63;;;22.20;60.30;;;;;;5073680;28;20040;-91
2023/07/02 06:48:09;;;;;;;6.65;3.25;;;22.20;61.20;;;;;;5057018;28;20059;-92
2023/07/02 06:50:36;;;;;;;6.55;3.40;;;22.20;61.00;;;;;;5073739;28;20040;-91
2023/07/02 06:53:04;;;;;;;8.02;3.60;;;22.20;61.30;;;;;;5073305;28;20040;-91
2023/07/02 06:55:31;;;;;;;7.10;3.45;;;22.10;60.80;;;;;;5074004;28;20045;-91
2023/07/02 06:57:58;;;;;;;7.00;3.53;;;22.00;60.40;;;;;;5057369;28;20139;-92
2023/07/02 07:00:25;;;;;;;9.13;3.50;;;21.80;60.50;;;;;;5058274;28;20406;-90
2023/07/02 07:02:52;;;;;;;7.68;3.42;;;21.70;61.10;;;;;;5062283;28;20148;-92
2023/07/02 07:05:19;;;;;;;10.18;3.45;;;21.60;60.90;;;;;;5062124;28;20051;-92
2023/07/02 07:07:47;;;;;;;7.10;3.70;;;21.60;61.40;;;;;;5063824;28;20106;-93
2023/07/02 07:10:14;;;;;;;8.13;3.57;;;21.60;61.70;;;;;;5062505;28;20458;-90
2023/07/02 07:12:41;;;;;;;9.88;3.63;;;21.60;62.70;;;;;;5061182;28;20040;-91
2023/07/02 07:15:10;;;;;;;8.15;3.40;;;21.60;62.30;;;;;;5061349;28;20040;-89
2023/07/02 07:17:37;;;;;;;7.90;3.50;;;21.60;61.40;;;;;;5064159;28;20045;-91
2023/07/02 07:20:05;;;;;;;9.13;3.47;;;21.60;61.30;;;;;;5080397;28;20044;-91
2023/07/02 07:22:34;;;;;;;7.07;2.93;;;21.50;61.00;;;;;;5061586;28;20056;-92
2023/07/02 07:25:01;;;;;;;6.65;3.20;;;21.60;61.20;;;;;;5077849;28;20045;-90
2023/07/02 07:27:28;;;;;;;7.43;3.58;;;21.50;61.20;;;;;;5060834;28;20044;-92
2023/07/02 07:29:55;;;;;;;6.95;3.58;;;21.40;61.40;;;;;;5077023;28;20048;-93
2023/07/02 07:32:22;;;;;;;8.25;3.30;;;21.50;62.10;;;;;;5060437;28;20056;-93
2023/07/02 07:34:50;;;;;;;8.40;3.00;;;21.50;62.30;;;;;;5076736;28;20495;-92
2023/07/02 07:37:17;;;;;;;8.15;2.72;;;21.60;61.10;;;;;;5076567;28;20040;-93
2023/07/02 07:39:44;;;;;;;7.72;3.60;;;21.60;60.70;;;;;;5076710;28;20075;-92
2023/07/02 07:42:11;;;;;;;7.18;3.30;;;21.70;60.90;;;;;;5059909;28;20055;-92
2023/07/02 07:44:38;;;;;;;7.50;3.40;;;21.60;61.60;;;;;;5060524;28;20505;-92
2023/07/02 07:47:05;;;;;;;7.63;3.53;;;21.60;63.00;;;;;;5060022;28;20052;-92
2023/07/02 07:49:32;;;;;;;9.07;3.90;;;21.50;63.40;;;;;;5059934;28;20044;-92
2023/07/02 07:51:59;;;;;;;6.95;3.30;;;21.40;63.00;;;;;;5059710;28;20044;-92
2023/07/02 07:54:26;;;;;;;7.45;3.95;;;21.40;63.20;;;;;;5076314;28;20040;-91
2023/07/02 07:56:53;;;;;;;11.07;4.00;;;21.40;63.40;;;;;;5060204;28;20052;-91
2023/07/02 07:59:20;;;;;;;9.67;3.73;;;21.40;63.50;;;;;;5076383;28;20044;-91
2023/07/02 08:01:48;;;;;;;6.50;3.70;;;21.40;63.50;;;;;;5059542;28;20049;-91
2023/07/02 08:04:15;;;;;;;7.60;3.63;;;21.30;63.40;;;;;;5059644;28;20048;-91
2023/07/02 08:06:42;;;;;;;7.63;3.20;;;21.30;64.10;;;;;;5076234;28;20060;-91
2023/07/02 08:09:11;;;;;;;8.63;4.10;;;21.30;64.40;;;;;;5076144;28;20063;-91
2023/07/02 08:11:38;;;;;;;6.83;3.57;;;21.40;65.90;;;;;;5058514;28;20068;-91
2023/07/02 08:14:06;;;;;;;7.22;3.70;;;21.60;65.10;;;;;;5075473;28;20067;-92
2023/07/02 08:16:33;;;;;;;8.57;4.60;;;21.60;65.40;;;;;;5059423;28;20052;-91
2023/07/02 08:19:02;;;;;;;8.50;4.55;;;21.70;64.90;;;;;;5076340;28;20041;-91
2023/07/02 08:21:29;;;;;;;8.55;3.97;;;21.60;64.40;;;;;;5075804;28;20501;-91
2023/07/02 08:23:57;;;;;;;6.60;3.60;;;21.60;65.40;;;;;;5059381;28;20510;-93
2023/07/02 08:26:24;;;;;;;8.23;3.72;;;21.70;65.60;;;;;;5076718;28;20098;-93
2023/07/02 08:28:51;;;;;;;10.77;4.57;;;21.80;65.80;;;;;;5076129;28;20040;-91
2023/07/02 08:31:19;;;;;;;8.80;4.20;;;22.00;64.50;;;;;;5060222;28;20102;-93
2023/07/02 08:33:46;;;;;;;8.75;4.40;;;22.30;65.70;;;;;;5061107;28;20117;-94
2023/07/02 08:36:16;;;;;;;7.37;3.97;;;22.60;63.10;;;;;;5075170;28;20055;-90
2023/07/02 08:38:43;;;;;;;11.45;4.63;;;22.70;61.90;;;;;;5059000;28;20548;-94
2023/07/02 08:41:10;;;;;;;8.35;3.53;;;22.60;62.70;;;;;;5058802;28;20041;-94
2023/07/02 08:43:38;;;;;;;7.45;3.20;;;22.40;62.40;;;;;;5076157;28;20409;-95
2023/07/02 08:46:07;;;;;;;7.55;3.90;;;22.10;62.30;;;;;;5060493;28;20048;-96
2023/07/02 08:48:35;;;;;;;7.50;3.30;;;22.10;63.40;;;;;;5059516;28;20055;-96
2023/07/02 08:51:06;;;;;;;8.05;4.18;;;22.10;62.70;;;;;;5076955;28;20056;-96
2023/07/02 08:53:34;;;;;;;7.95;4.30;;;22.30;64.20;;;;;;5086536;28;20048;-95
2023/07/02 09:03:10;;;;;;;11.67;4.00;;;22.60;61.30;;;;;;2133267;23;20319;-95
2023/07/02 09:05:51;;;;;;;7.15;3.53;;;23.00;61.90;;;;;;4891588;29;20079;-96
2023/07/02 09:08:24;;;;;;;6.40;3.60;;;23.00;60.80;;;;;;4888445;29;20054;-96
2023/07/02 09:11:06;;;;;;;5.68;3.05;;;22.90;61.50;;;;;;4891527;29;20143;-96
2023/07/02 09:14:03;;;;;;;8.23;3.13;;;22.80;62.30;;;;;;4890118;29;20049;-96
2023/07/02 09:16:45;;;;;;;6.73;2.60;;;22.60;62.00;;;;;;4901723;29;20045;-96
2023/07/02 09:33:45;;;;;;;5.63;2.65;;;22.90;61.70;;;;;;4878062;29;20082;-96
2023/07/02 09:43:07;;;;;;;5.78;3.17;;;22.90;61.20;;;;;;5539868;23;20059;-96
2023/07/02 10:10:36;;;;;;;6.00;2.23;;;24.70;58.70;;;;;;5418157;23;20144;-96
2023/07/02 10:13:08;;;;;;;6.85;2.78;;;24.90;57.60;;;;;;4886422;29;20060;-96
2023/07/02 10:15:39;;;;;;;7.57;3.22;;;24.60;58.70;;;;;;4867591;29;20053;-95
2023/07/02 10:18:06;;;;;;;5.63;2.45;;;24.30;58.70;;;;;;4871085;29;20074;-95
2023/07/02 10:20:38;;;;;;;6.75;2.65;;;24.10;60.70;;;;;;5156610;23;20152;-96
2023/07/02 10:23:12;;;;;;;5.07;2.70;;;24.20;60.00;;;;;;4872384;29;20049;-96
2023/07/02 10:25:39;;;;;;;5.47;2.25;;;24.50;59.20;;;;;;4871609;29;20052;-96
2023/07/02 10:28:24;;;;;;;4.22;2.15;;;24.60;58.20;;;;;;4885369;29;20048;-95
2023/07/02 10:30:53;;;;;;;4.88;2.33;;;24.40;59.30;;;;;;4866366;29;20584;-96
2023/07/02 11:32:10;;;;;;;5.97;2.28;;;25.60;55.30;;;;;;5690876;23;20084;-96
2023/07/02 11:34:38;;;;;;;4.47;2.00;;;25.60;54.60;;;;;;4869786;29;20063;-95
2023/07/02 11:37:06;;;;;;;5.40;2.08;;;25.70;55.30;;;;;;4873254;29;20049;-96
2023/07/02 11:39:34;;;;;;;4.90;2.33;;;25.90;53.90;;;;;;4871586;29;20057;-95
2023/07/02 11:42:01;;;;;;;6.07;2.60;;;26.10;53.30;;;;;;4867555;29;20079;-94
2023/07/02 11:44:28;;;;;;;4.57;2.17;;;26.20;54.70;;;;;;4868034;29;20059;-94
2023/07/02 11:46:56;;;;;;;5.25;2.38;;;26.10;52.30;;;;;;4870067;29;20044;-94
2023/07/02 11:49:24;;;;;;;4.05;2.38;;;26.10;52.30;;;;;;4886970;29;20051;-96
2023/07/02 11:51:51;;;;;;;4.20;2.30;;;26.30;52.90;;;;;;4872142;29;20064;-95
2023/07/02 11:54:18;;;;;;;3.90;1.93;;;26.50;51.40;;;;;;4870720;29;20052;-95
2023/07/02 11:56:46;;;;;;;3.92;1.75;;;26.50;51.20;;;;;;4870549;29;20052;-94
2023/07/02 11:59:13;;;;;;;3.70;2.05;;;26.10;51.10;;;;;;4885372;29;20076;-94
2023/07/02 12:01:40;;;;;;;4.05;1.95;;;26.00;51.30;;;;;;4869809;29;20135;-92
2023/07/02 12:04:11;;;;;;;5.07;2.00;;;26.20;52.90;;;;;;4885307;29;20049;-94
2023/07/02 12:06:39;;;;;;;4.57;2.20;;;26.10;51.20;;;;;;4885259;29;20559;-93
2023/07/02 12:09:06;;;;;;;4.72;2.28;;;25.80;53.00;;;;;;4869852;29;20069;-94
2023/07/02 12:11:33;;;;;;;5.30;2.40;;;25.60;54.20;;;;;;4869696;29;20056;-93
2023/07/02 12:14:00;;;;;;;5.93;2.10;;;25.40;54.70;;;;;;4885128;29;20077;-94
2023/07/02 12:16:27;;;;;;;5.68;2.53;;;25.10;55.10;;;;;;4870080;29;20049;-94
2023/07/02 12:18:54;;;;;;;6.00;2.40;;;25.00;53.80;;;;;;4870008;29;20052;-94
2023/07/02 12:21:21;;;;;;;5.15;2.10;;;24.90;55.80;;;;;;4870238;29;20100;-94
2023/07/02 12:23:48;;;;;;;4.75;1.80;;;25.00;55.30;;;;;;4869751;29;20067;-93
2023/07/02 12:26:15;;;;;;;5.45;2.50;;;25.00;54.00;;;;;;4869857;29;20104;-93
2023/07/02 12:28:43;;;;;;;5.60;2.38;;;25.10;54.50;;;;;;4870209;29;20056;-93
2023/07/02 12:31:10;;;;;;;5.37;2.40;;;25.20;55.30;;;;;;4869609;29;20052;-94
2023/07/02 12:33:37;;;;;;;3.80;1.67;;;25.60;53.40;;;;;;4882185;29;20112;-94
2023/07/02 12:36:05;;;;;;;3.75;1.90;;;25.70;53.70;;;;;;4884945;29;20059;-94
2023/07/02 12:38:32;;;;;;;5.68;2.30;;;25.70;55.10;;;;;;4885499;29;20075;-93
2023/07/02 12:40:59;;;;;;;4.78;1.88;;;25.80;54.00;;;;;;4885124;29;20048;-94
2023/07/02 12:43:26;;;;;;;3.37;1.87;;;25.60;52.90;;;;;;4885059;29;20079;-94
2023/07/02 12:45:53;;;;;;;4.30;1.70;;;25.70;54.00;;;;;;4885061;29;20044;-93
2023/07/02 12:48:20;;;;;;;5.80;2.15;;;26.00;52.20;;;;;;4900369;29;20426;-93
2023/07/02 12:50:58;;;;;;;4.10;2.10;;;26.20;52.10;;;;;;4884763;29;20143;-93
2023/07/02 12:53:26;;;;;;;3.58;2.25;;;26.60;53.00;;;;;;4884599;29;20048;-91
2023/07/02 12:55:54;;;;;;;4.27;1.93;;;26.60;52.00;;;;;;4900879;29;20052;-95
2023/07/02 12:58:22;;;;;;;4.03;1.85;;;26.60;49.90;;;;;;4884203;29;20415;-94
2023/07/02 13:00:49;;;;;;;3.53;1.75;;;26.30;50.30;;;;;;4881976;29;20452;-93
2023/07/02 13:03:17;;;;;;;5.63;1.90;;;26.20;52.40;;;;;;4881488;29;20144;-93
2023/07/02 13:05:47;;;;;;;4.53;1.95;;;26.10;52.00;;;;;;4881680;29;20052;-92
2023/07/02 13:08:15;;;;;;;3.73;1.87;;;25.80;51.30;;;;;;4865936;29;20053;-92
2023/07/02 13:10:43;;;;;;;4.28;1.90;;;25.50;52.50;;;;;;4881348;29;20057;-92
2023/07/02 13:13:10;;;;;;;3.85;2.00;;;25.20;52.80;;;;;;4866534;29;20385;-91
2023/07/02 13:15:49;;;;;;;3.40;1.70;;;25.10;53.50;;;;;;4895536;29;20148;-91
2023/07/02 13:18:17;;;;;;;3.10;2.03;;;25.00;53.60;;;;;;4881616;29;20521;-93
2023/07/02 13:20:44;;;;;;;5.07;1.70;;;24.80;55.70;;;;;;4897143;29;20049;-93
2023/07/02 13:23:11;;;;;;;4.88;1.77;;;24.30;57.60;;;;;;4881384;29;20053;-93
2023/07/02 13:25:38;;;;;;;6.10;1.90;;;23.80;59.40;;;;;;4897112;29;20045;-92
2023/07/02 13:28:05;;;;;;;5.07;2.08;;;23.40;62.20;;;;;;4880807;29;20056;-92
2023/07/02 13:30:32;;;;;;;4.45;1.92;;;23.10;62.60;;;;;;4881117;29;20534;-93
2023/07/02 13:33:00;;;;;;;5.73;2.20;;;23.10;63.40;;;;;;4896041;29;20057;-95
2023/07/02 13:35:27;;;;;;;3.83;2.50;;;23.00;64.10;;;;;;4881478;29;20045;-95
2023/07/02 13:41:12;;;;;;;3.38;1.90;;;23.30;62.40;;;;;;5210674;23;20055;-96
2023/07/02 13:43:40;;;;;;;3.72;2.10;;;23.20;63.20;;;;;;4895046;29;20086;-96
2023/07/02 13:46:08;;;;;;;6.27;2.40;;;23.00;63.70;;;;;;4891101;29;20048;-96
2023/07/02 13:48:36;;;;;;;4.90;2.10;;;22.90;64.90;;;;;;4872093;29;20049;-96
2023/07/02 13:51:03;;;;;;;6.43;2.58;;;23.00;63.20;;;;;;4874209;29;20052;-96
2023/07/02 13:53:32;;;;;;;7.63;2.33;;;23.20;63.70;;;;;;4889242;29;20411;-96
2023/07/02 13:56:07;;;;;;;7.18;2.78;;;23.40;63.50;;;;;;4887730;29;20048;-96
2023/07/02 13:58:56;;;;;;;10.90;2.47;;;23.40;63.40;;;;;;4872023;29;20063;-96
2023/07/02 14:01:24;;;;;;;7.75;2.72;;;23.40;62.50;;;;;;4884081;29;20076;-94
2023/07/02 14:03:54;;;;;;;10.50;5.45;;;23.60;63.10;;;;;;4868333;29;20392;-96
2023/07/02 14:06:22;;;;;;;3.65;2.33;;;24.10;62.30;;;;;;4884212;29;20045;-96
2023/07/02 14:08:49;;;;;;;3.42;1.95;;;24.30;61.20;;;;;;4884104;29;20053;-93
2023/07/02 14:11:17;;;;;;;4.87;2.23;;;24.40;60.40;;;;;;4883532;29;20147;-94
2023/07/02 14:13:52;;;;;;;4.72;2.00;;;24.40;59.40;;;;;;4889289;29;20048;-96
2023/07/02 14:26:04;;;;;;;3.03;1.70;;;24.50;58.30;;;;;;5062387;23;20091;-95
2023/07/02 14:28:34;;;;;;;4.32;1.70;;;24.60;58.20;;;;;;4883028;29;20052;-94
2023/07/02 14:31:07;;;;;;;3.63;2.08;;;24.50;56.90;;;;;;4883103;29;20049;-95
2023/07/02 14:33:39;;;;;;;3.10;1.80;;;24.60;57.60;;;;;;4883278;29;20052;-94
2023/07/02 14:36:07;;;;;;;4.28;2.00;;;24.60;57.20;;;;;;4883248;29;20072;-95
2023/07/02 14:38:35;;;;;;;3.90;1.80;;;24.30;58.10;;;;;;4883014;29;20053;-94
2023/07/02 14:41:07;;;;;;;3.60;2.13;;;24.10;59.50;;;;;;4883574;29;20148;-95
2023/07/02 14:43:34;;;;;;;3.58;2.08;;;24.40;59.20;;;;;;4882994;29;20049;-96
2023/07/02 14:46:03;;;;;;;7.00;2.15;;;24.70;58.80;;;;;;4883749;29;20052;-95
2023/07/02 14:48:31;;;;;;;4.47;1.80;;;24.70;57.20;;;;;;4867902;29;20044;-96